<?xml version="1.0" encoding="UTF-8" standalone="no" ?>
<gpx xmlns="http://www.topografix.com/GPX/1/1" xmlns:xsi="http://www.w3.org/2001/XMLSchema-instance" xsi:schemaLocation="http://www.topografix.com/GPX/1/1 http://www.topografix.com/GPX/1/1/gpx.xsd" version="1.1" creator="VisuGPX - https://www.visugpx.com">
  <metadata>
    <name>Circuit de la Tricherie</name>
  </metadata>
  <trk>
    <name><![CDATA[Circuit de la Tricherie]]></name>
    <extensions>
      <line xmlns="http://www.topografix.com/GPX/gpx_style/0/2">
        <color>0000FF</color>
        <width>4</width>
      </line>
    </extensions>
    <trkseg>
      <trkpt lat="46.8533" lon="-1.11749">
        <ele>98</ele>
        <time>2017-09-06T17:29:19+02:00</time>
      </trkpt>
      <trkpt lat="46.85359" lon="-1.117">
        <ele>96</ele>
        <time>2017-09-06T17:29:51+02:00</time>
      </trkpt>
      <trkpt lat="46.85371" lon="-1.1167">
        <ele>94</ele>
        <time>2017-09-06T17:30:03+02:00</time>
      </trkpt>
      <trkpt lat="46.85378" lon="-1.11639">
        <ele>94</ele>
        <time>2017-09-06T17:30:19+02:00</time>
      </trkpt>
      <trkpt lat="46.85385" lon="-1.11606">
        <ele>93</ele>
        <time>2017-09-06T17:30:32+02:00</time>
      </trkpt>
      <trkpt lat="46.85388" lon="-1.11572">
        <ele>93</ele>
        <time>2017-09-06T17:30:48+02:00</time>
      </trkpt>
      <trkpt lat="46.85394" lon="-1.1154">
        <ele>93</ele>
        <time>2017-09-06T17:31:04+02:00</time>
      </trkpt>
      <trkpt lat="46.85397" lon="-1.11507">
        <ele>93</ele>
        <time>2017-09-06T17:31:17+02:00</time>
      </trkpt>
      <trkpt lat="46.85405" lon="-1.1146">
        <ele>94</ele>
        <time>2017-09-06T17:31:33+02:00</time>
      </trkpt>
      <trkpt lat="46.85384" lon="-1.11453">
        <ele>94</ele>
        <time>2017-09-06T17:31:54+02:00</time>
      </trkpt>
      <trkpt lat="46.85361" lon="-1.11447">
        <ele>95</ele>
        <time>2017-09-06T17:32:09+02:00</time>
      </trkpt>
      <trkpt lat="46.8534" lon="-1.11434">
        <ele>96</ele>
        <time>2017-09-06T17:32:24+02:00</time>
      </trkpt>
      <trkpt lat="46.8532" lon="-1.11414">
        <ele>97</ele>
        <time>2017-09-06T17:32:41+02:00</time>
      </trkpt>
      <trkpt lat="46.85298" lon="-1.11401">
        <ele>96</ele>
        <time>2017-09-06T17:32:56+02:00</time>
      </trkpt>
      <trkpt lat="46.85278" lon="-1.11382">
        <ele>96</ele>
        <time>2017-09-06T17:33:11+02:00</time>
      </trkpt>
      <trkpt lat="46.8526" lon="-1.11361">
        <ele>96</ele>
        <time>2017-09-06T17:33:28+02:00</time>
      </trkpt>
      <trkpt lat="46.85243" lon="-1.11336">
        <ele>97</ele>
        <time>2017-09-06T17:33:43+02:00</time>
      </trkpt>
      <trkpt lat="46.85229" lon="-1.11309">
        <ele>96</ele>
        <time>2017-09-06T17:33:57+02:00</time>
      </trkpt>
      <trkpt lat="46.85218" lon="-1.11279">
        <ele>95</ele>
        <time>2017-09-06T17:34:12+02:00</time>
      </trkpt>
      <trkpt lat="46.85187" lon="-1.11228">
        <ele>95</ele>
        <time>2017-09-06T17:34:43+02:00</time>
      </trkpt>
      <trkpt lat="46.85169" lon="-1.11207">
        <ele>95</ele>
        <time>2017-09-06T17:34:56+02:00</time>
      </trkpt>
      <trkpt lat="46.85148" lon="-1.11189">
        <ele>95</ele>
        <time>2017-09-06T17:35:14+02:00</time>
      </trkpt>
      <trkpt lat="46.85127" lon="-1.11179">
        <ele>96</ele>
        <time>2017-09-06T17:35:30+02:00</time>
      </trkpt>
      <trkpt lat="46.85105" lon="-1.11166">
        <ele>96</ele>
        <time>2017-09-06T17:35:43+02:00</time>
      </trkpt>
      <trkpt lat="46.85083" lon="-1.11153">
        <ele>97</ele>
        <time>2017-09-06T17:35:57+02:00</time>
      </trkpt>
      <trkpt lat="46.85062" lon="-1.11138">
        <ele>96</ele>
        <time>2017-09-06T17:36:13+02:00</time>
      </trkpt>
      <trkpt lat="46.85045" lon="-1.11117">
        <ele>96</ele>
        <time>2017-09-06T17:36:28+02:00</time>
      </trkpt>
      <trkpt lat="46.85028" lon="-1.11094">
        <ele>96</ele>
        <time>2017-09-06T17:36:44+02:00</time>
      </trkpt>
      <trkpt lat="46.85019" lon="-1.11063">
        <ele>96</ele>
        <time>2017-09-06T17:36:59+02:00</time>
      </trkpt>
      <trkpt lat="46.85014" lon="-1.1103">
        <ele>96</ele>
        <time>2017-09-06T17:37:16+02:00</time>
      </trkpt>
      <trkpt lat="46.8501" lon="-1.10996">
        <ele>96</ele>
        <time>2017-09-06T17:37:30+02:00</time>
      </trkpt>
      <trkpt lat="46.85002" lon="-1.10963">
        <ele>96</ele>
        <time>2017-09-06T17:37:47+02:00</time>
      </trkpt>
      <trkpt lat="46.85004" lon="-1.10929">
        <ele>97</ele>
        <time>2017-09-06T17:38:04+02:00</time>
      </trkpt>
      <trkpt lat="46.85016" lon="-1.109">
        <ele>97</ele>
        <time>2017-09-06T17:38:20+02:00</time>
      </trkpt>
      <trkpt lat="46.85025" lon="-1.10869">
        <ele>97</ele>
        <time>2017-09-06T17:38:37+02:00</time>
      </trkpt>
      <trkpt lat="46.85036" lon="-1.10839">
        <ele>96</ele>
        <time>2017-09-06T17:38:52+02:00</time>
      </trkpt>
      <trkpt lat="46.85047" lon="-1.10809">
        <ele>97</ele>
        <time>2017-09-06T17:39:10+02:00</time>
      </trkpt>
      <trkpt lat="46.85062" lon="-1.10781">
        <ele>97</ele>
        <time>2017-09-06T17:39:24+02:00</time>
      </trkpt>
      <trkpt lat="46.85072" lon="-1.10751">
        <ele>98</ele>
        <time>2017-09-06T17:39:41+02:00</time>
      </trkpt>
      <trkpt lat="46.85082" lon="-1.10721">
        <ele>99</ele>
        <time>2017-09-06T17:39:56+02:00</time>
      </trkpt>
      <trkpt lat="46.85096" lon="-1.10695">
        <ele>100</ele>
        <time>2017-09-06T17:40:10+02:00</time>
      </trkpt>
      <trkpt lat="46.8511" lon="-1.10669">
        <ele>101</ele>
        <time>2017-09-06T17:40:26+02:00</time>
      </trkpt>
      <trkpt lat="46.85115" lon="-1.10636">
        <ele>101</ele>
        <time>2017-09-06T17:40:41+02:00</time>
      </trkpt>
      <trkpt lat="46.85119" lon="-1.10602">
        <ele>101</ele>
        <time>2017-09-06T17:40:57+02:00</time>
      </trkpt>
      <trkpt lat="46.85128" lon="-1.10571">
        <ele>102</ele>
        <time>2017-09-06T17:41:15+02:00</time>
      </trkpt>
      <trkpt lat="46.85141" lon="-1.10544">
        <ele>102</ele>
        <time>2017-09-06T17:41:29+02:00</time>
      </trkpt>
      <trkpt lat="46.8516" lon="-1.10526">
        <ele>103</ele>
        <time>2017-09-06T17:41:45+02:00</time>
      </trkpt>
      <trkpt lat="46.85173" lon="-1.10523">
        <ele>103</ele>
      </trkpt>
      <trkpt lat="46.85191" lon="-1.10563">
        <ele>103</ele>
        <time>2017-09-06T17:42:16+02:00</time>
      </trkpt>
      <trkpt lat="46.85207" lon="-1.10586">
        <ele>103</ele>
        <time>2017-09-06T17:42:33+02:00</time>
      </trkpt>
      <trkpt lat="46.85221" lon="-1.10612">
        <ele>103</ele>
        <time>2017-09-06T17:42:46+02:00</time>
      </trkpt>
      <trkpt lat="46.85234" lon="-1.10639">
        <ele>103</ele>
        <time>2017-09-06T17:43:02+02:00</time>
      </trkpt>
      <trkpt lat="46.85249" lon="-1.10666">
        <ele>103</ele>
        <time>2017-09-06T17:43:17+02:00</time>
      </trkpt>
      <trkpt lat="46.85262" lon="-1.10693">
        <ele>103</ele>
        <time>2017-09-06T17:43:32+02:00</time>
      </trkpt>
      <trkpt lat="46.85276" lon="-1.1072">
        <ele>103</ele>
        <time>2017-09-06T17:43:46+02:00</time>
      </trkpt>
      <trkpt lat="46.85293" lon="-1.10745">
        <ele>103</ele>
        <time>2017-09-06T17:44:02+02:00</time>
      </trkpt>
      <trkpt lat="46.85305" lon="-1.10774">
        <ele>103</ele>
        <time>2017-09-06T17:44:16+02:00</time>
      </trkpt>
      <trkpt lat="46.85323" lon="-1.10796">
        <ele>104</ele>
        <time>2017-09-06T17:44:31+02:00</time>
      </trkpt>
      <trkpt lat="46.85345" lon="-1.10799">
        <ele>104</ele>
        <time>2017-09-06T17:44:45+02:00</time>
      </trkpt>
      <trkpt lat="46.85369" lon="-1.10797">
        <ele>104</ele>
        <time>2017-09-06T17:45:01+02:00</time>
      </trkpt>
      <trkpt lat="46.85392" lon="-1.10794">
        <ele>104</ele>
        <time>2017-09-06T17:45:18+02:00</time>
      </trkpt>
      <trkpt lat="46.85414" lon="-1.10789">
        <ele>104</ele>
        <time>2017-09-06T17:45:33+02:00</time>
      </trkpt>
      <trkpt lat="46.85437" lon="-1.10786">
        <ele>104</ele>
        <time>2017-09-06T17:45:48+02:00</time>
      </trkpt>
      <trkpt lat="46.85462" lon="-1.1078">
        <ele>104</ele>
        <time>2017-09-06T17:46:05+02:00</time>
      </trkpt>
      <trkpt lat="46.85485" lon="-1.10774">
        <ele>104</ele>
        <time>2017-09-06T17:46:21+02:00</time>
      </trkpt>
      <trkpt lat="46.85509" lon="-1.10771">
        <ele>104</ele>
        <time>2017-09-06T17:46:37+02:00</time>
      </trkpt>
      <trkpt lat="46.85531" lon="-1.10769">
        <ele>104</ele>
        <time>2017-09-06T17:46:52+02:00</time>
      </trkpt>
      <trkpt lat="46.85555" lon="-1.10768">
        <ele>104</ele>
        <time>2017-09-06T17:47:08+02:00</time>
      </trkpt>
      <trkpt lat="46.85579" lon="-1.10761">
        <ele>104</ele>
        <time>2017-09-06T17:47:24+02:00</time>
      </trkpt>
      <trkpt lat="46.85603" lon="-1.10756">
        <ele>103</ele>
        <time>2017-09-06T17:47:38+02:00</time>
      </trkpt>
      <trkpt lat="46.85626" lon="-1.1075">
        <ele>102</ele>
        <time>2017-09-06T17:47:53+02:00</time>
      </trkpt>
      <trkpt lat="46.85649" lon="-1.10745">
        <ele>102</ele>
        <time>2017-09-06T17:48:06+02:00</time>
      </trkpt>
      <trkpt lat="46.85672" lon="-1.10741">
        <ele>101</ele>
        <time>2017-09-06T17:48:21+02:00</time>
      </trkpt>
      <trkpt lat="46.85696" lon="-1.10736">
        <ele>101</ele>
        <time>2017-09-06T17:48:36+02:00</time>
      </trkpt>
      <trkpt lat="46.85718" lon="-1.10732">
        <ele>101</ele>
        <time>2017-09-06T17:48:50+02:00</time>
      </trkpt>
      <trkpt lat="46.85741" lon="-1.10728">
        <ele>101</ele>
        <time>2017-09-06T17:49:05+02:00</time>
      </trkpt>
      <trkpt lat="46.85765" lon="-1.10723">
        <ele>101</ele>
        <time>2017-09-06T17:49:22+02:00</time>
      </trkpt>
      <trkpt lat="46.85789" lon="-1.10722">
        <ele>101</ele>
        <time>2017-09-06T17:49:38+02:00</time>
      </trkpt>
      <trkpt lat="46.85814" lon="-1.10721">
        <ele>101</ele>
        <time>2017-09-06T17:49:58+02:00</time>
      </trkpt>
      <trkpt lat="46.85836" lon="-1.10713">
        <ele>100</ele>
        <time>2017-09-06T17:50:12+02:00</time>
      </trkpt>
      <trkpt lat="46.85858" lon="-1.10708">
        <ele>100</ele>
        <time>2017-09-06T17:50:27+02:00</time>
      </trkpt>
      <trkpt lat="46.85881" lon="-1.10698">
        <ele>100</ele>
        <time>2017-09-06T17:50:40+02:00</time>
      </trkpt>
      <trkpt lat="46.85904" lon="-1.10699">
        <ele>100</ele>
        <time>2017-09-06T17:50:54+02:00</time>
      </trkpt>
      <trkpt lat="46.85927" lon="-1.10693">
        <ele>99</ele>
        <time>2017-09-06T17:51:10+02:00</time>
      </trkpt>
      <trkpt lat="46.85949" lon="-1.10689">
        <ele>99</ele>
        <time>2017-09-06T17:51:23+02:00</time>
      </trkpt>
      <trkpt lat="46.85972" lon="-1.10683">
        <ele>99</ele>
        <time>2017-09-06T17:51:38+02:00</time>
      </trkpt>
      <trkpt lat="46.85995" lon="-1.10682">
        <ele>98</ele>
        <time>2017-09-06T17:51:53+02:00</time>
      </trkpt>
      <trkpt lat="46.86018" lon="-1.10676">
        <ele>98</ele>
        <time>2017-09-06T17:52:09+02:00</time>
      </trkpt>
      <trkpt lat="46.86041" lon="-1.10673">
        <ele>98</ele>
        <time>2017-09-06T17:52:22+02:00</time>
      </trkpt>
      <trkpt lat="46.86064" lon="-1.10669">
        <ele>98</ele>
        <time>2017-09-06T17:52:36+02:00</time>
      </trkpt>
      <trkpt lat="46.86087" lon="-1.10672">
        <ele>98</ele>
        <time>2017-09-06T17:52:52+02:00</time>
      </trkpt>
      <trkpt lat="46.86087" lon="-1.10638">
        <ele>98</ele>
        <time>2017-09-06T17:53:09+02:00</time>
      </trkpt>
      <trkpt lat="46.86078" lon="-1.10608">
        <ele>99</ele>
        <time>2017-09-06T17:53:25+02:00</time>
      </trkpt>
      <trkpt lat="46.86073" lon="-1.10575">
        <ele>99</ele>
        <time>2017-09-06T17:53:41+02:00</time>
      </trkpt>
      <trkpt lat="46.8607" lon="-1.10542">
        <ele>100</ele>
        <time>2017-09-06T17:53:56+02:00</time>
      </trkpt>
      <trkpt lat="46.86066" lon="-1.10509">
        <ele>100</ele>
        <time>2017-09-06T17:54:10+02:00</time>
      </trkpt>
      <trkpt lat="46.86059" lon="-1.10477">
        <ele>99</ele>
        <time>2017-09-06T17:54:23+02:00</time>
      </trkpt>
      <trkpt lat="46.86036" lon="-1.10475">
        <ele>98</ele>
        <time>2017-09-06T17:54:38+02:00</time>
      </trkpt>
      <trkpt lat="46.86012" lon="-1.10473">
        <ele>97</ele>
        <time>2017-09-06T17:54:53+02:00</time>
      </trkpt>
      <trkpt lat="46.85993" lon="-1.10454">
        <ele>96</ele>
        <time>2017-09-06T17:55:13+02:00</time>
      </trkpt>
      <trkpt lat="46.85978" lon="-1.10429">
        <ele>95</ele>
        <time>2017-09-06T17:55:29+02:00</time>
      </trkpt>
      <trkpt lat="46.85963" lon="-1.10404">
        <ele>95</ele>
        <time>2017-09-06T17:55:42+02:00</time>
      </trkpt>
      <trkpt lat="46.85941" lon="-1.10399">
        <ele>94</ele>
        <time>2017-09-06T17:56:03+02:00</time>
      </trkpt>
      <trkpt lat="46.8592" lon="-1.10416">
        <ele>95</ele>
        <time>2017-09-06T17:56:22+02:00</time>
      </trkpt>
      <trkpt lat="46.85901" lon="-1.10437">
        <ele>95</ele>
        <time>2017-09-06T17:56:35+02:00</time>
      </trkpt>
      <trkpt lat="46.85881" lon="-1.10451">
        <ele>95</ele>
        <time>2017-09-06T17:56:52+02:00</time>
      </trkpt>
      <trkpt lat="46.85862" lon="-1.10431">
        <ele>95</ele>
        <time>2017-09-06T17:57:22+02:00</time>
      </trkpt>
      <trkpt lat="46.8588" lon="-1.10411">
        <ele>94</ele>
        <time>2017-09-06T17:57:41+02:00</time>
      </trkpt>
      <trkpt lat="46.85901" lon="-1.10397">
        <ele>94</ele>
        <time>2017-09-06T17:57:55+02:00</time>
      </trkpt>
      <trkpt lat="46.85919" lon="-1.10376">
        <ele>94</ele>
        <time>2017-09-06T17:58:13+02:00</time>
      </trkpt>
      <trkpt lat="46.85939" lon="-1.10359">
        <ele>93</ele>
        <time>2017-09-06T17:58:29+02:00</time>
      </trkpt>
      <trkpt lat="46.85959" lon="-1.10341">
        <ele>93</ele>
        <time>2017-09-06T17:58:46+02:00</time>
      </trkpt>
      <trkpt lat="46.85979" lon="-1.10325">
        <ele>93</ele>
        <time>2017-09-06T17:59:02+02:00</time>
      </trkpt>
      <trkpt lat="46.85986" lon="-1.10293">
        <ele>92</ele>
        <time>2017-09-06T17:59:20+02:00</time>
      </trkpt>
      <trkpt lat="46.85982" lon="-1.1026">
        <ele>91</ele>
        <time>2017-09-06T17:59:37+02:00</time>
      </trkpt>
      <trkpt lat="46.85979" lon="-1.10227">
        <ele>90</ele>
        <time>2017-09-06T17:59:53+02:00</time>
      </trkpt>
      <trkpt lat="46.85977" lon="-1.10193">
        <ele>90</ele>
        <time>2017-09-06T18:00:11+02:00</time>
      </trkpt>
      <trkpt lat="46.85975" lon="-1.1016">
        <ele>90</ele>
        <time>2017-09-06T18:00:33+02:00</time>
      </trkpt>
      <trkpt lat="46.8597" lon="-1.10127">
        <ele>91</ele>
        <time>2017-09-06T18:00:57+02:00</time>
      </trkpt>
      <trkpt lat="46.8597" lon="-1.10094">
        <ele>91</ele>
        <time>2017-09-06T18:01:11+02:00</time>
      </trkpt>
      <trkpt lat="46.85968" lon="-1.10061">
        <ele>92</ele>
        <time>2017-09-06T18:01:31+02:00</time>
      </trkpt>
      <trkpt lat="46.85959" lon="-1.10029">
        <ele>92</ele>
        <time>2017-09-06T18:01:50+02:00</time>
      </trkpt>
      <trkpt lat="46.85955" lon="-1.09995">
        <ele>93</ele>
        <time>2017-09-06T18:02:27+02:00</time>
      </trkpt>
      <trkpt lat="46.85954" lon="-1.09962">
        <ele>92</ele>
        <time>2017-09-06T18:02:42+02:00</time>
      </trkpt>
      <trkpt lat="46.85949" lon="-1.09929">
        <ele>92</ele>
        <time>2017-09-06T18:02:59+02:00</time>
      </trkpt>
      <trkpt lat="46.85944" lon="-1.09896">
        <ele>91</ele>
        <time>2017-09-06T18:03:17+02:00</time>
      </trkpt>
      <trkpt lat="46.85944" lon="-1.09863">
        <ele>91</ele>
        <time>2017-09-06T18:03:37+02:00</time>
      </trkpt>
      <trkpt lat="46.8597" lon="-1.09847">
        <ele>90</ele>
        <time>2017-09-06T18:03:54+02:00</time>
      </trkpt>
      <trkpt lat="46.85969" lon="-1.09817">
        <ele>90</ele>
        <time>2017-09-06T18:04:14+02:00</time>
      </trkpt>
      <trkpt lat="46.85961" lon="-1.09786">
        <ele>90</ele>
        <time>2017-09-06T18:04:29+02:00</time>
        <extensions>
          <visugpx:TrkExtension xmlns:visugpx="https://www.visugpx.com/editgpx/">
            <visugpx:node>1</visugpx:node>
            </visugpx:TrkExtension>
        </extensions>
      </trkpt>
      <trkpt lat="46.8596" lon="-1.09787">
        <ele>90</ele>
        <time>2017-09-06T16:20:58+02:00</time>
      </trkpt>
      <trkpt lat="46.85968" lon="-1.09775">
        <ele>90</ele>
        <time>2017-09-06T16:21:44+02:00</time>
      </trkpt>
      <trkpt lat="46.85969" lon="-1.09742">
        <ele>90</ele>
        <time>2017-09-06T16:22:03+02:00</time>
      </trkpt>
      <trkpt lat="46.85959" lon="-1.09712">
        <ele>91</ele>
        <time>2017-09-06T16:22:18+02:00</time>
      </trkpt>
      <trkpt lat="46.85947" lon="-1.09683">
        <ele>92</ele>
        <time>2017-09-06T16:22:33+02:00</time>
      </trkpt>
      <trkpt lat="46.8594" lon="-1.09665">
        <ele>93</ele>
      </trkpt>
      <trkpt lat="46.85916" lon="-1.09682">
        <ele>94</ele>
      </trkpt>
      <trkpt lat="46.85885" lon="-1.09692">
        <ele>94</ele>
        <time>2017-09-06T16:23:28+02:00</time>
      </trkpt>
      <trkpt lat="46.85862" lon="-1.0964">
        <ele>94</ele>
        <time>2017-09-06T16:24:06+02:00</time>
      </trkpt>
      <trkpt lat="46.85847" lon="-1.09605">
        <ele>94</ele>
        <time>2017-09-06T16:24:24+02:00</time>
      </trkpt>
      <trkpt lat="46.85832" lon="-1.0958">
        <ele>94</ele>
        <time>2017-09-06T16:24:36+02:00</time>
      </trkpt>
      <trkpt lat="46.85822" lon="-1.09548">
        <ele>93</ele>
        <time>2017-09-06T16:24:51+02:00</time>
      </trkpt>
      <trkpt lat="46.85807" lon="-1.09523">
        <ele>93</ele>
        <time>2017-09-06T16:25:03+02:00</time>
      </trkpt>
      <trkpt lat="46.85796" lon="-1.09494">
        <ele>91</ele>
        <time>2017-09-06T16:25:20+02:00</time>
      </trkpt>
      <trkpt lat="46.85783" lon="-1.09464">
        <ele>90</ele>
        <time>2017-09-06T16:25:38+02:00</time>
      </trkpt>
      <trkpt lat="46.85765" lon="-1.09442">
        <ele>89</ele>
        <time>2017-09-06T16:25:53+02:00</time>
      </trkpt>
      <trkpt lat="46.85744" lon="-1.09426">
        <ele>88</ele>
        <time>2017-09-06T16:26:11+02:00</time>
      </trkpt>
      <trkpt lat="46.85723" lon="-1.09409">
        <ele>88</ele>
        <time>2017-09-06T16:26:26+02:00</time>
      </trkpt>
      <trkpt lat="46.85706" lon="-1.0939">
        <ele>88</ele>
        <time>2017-09-06T16:27:11+02:00</time>
      </trkpt>
      <trkpt lat="46.85692" lon="-1.09363">
        <ele>87</ele>
        <time>2017-09-06T16:27:28+02:00</time>
      </trkpt>
      <trkpt lat="46.85673" lon="-1.09344">
        <ele>87</ele>
        <time>2017-09-06T16:27:49+02:00</time>
      </trkpt>
      <trkpt lat="46.85652" lon="-1.09357">
        <ele>88</ele>
        <time>2017-09-06T16:28:04+02:00</time>
      </trkpt>
      <trkpt lat="46.8563" lon="-1.09365">
        <ele>89</ele>
        <time>2017-09-06T16:28:19+02:00</time>
      </trkpt>
      <trkpt lat="46.85608" lon="-1.09372">
        <ele>89</ele>
        <time>2017-09-06T16:28:33+02:00</time>
      </trkpt>
      <trkpt lat="46.85586" lon="-1.09383">
        <ele>90</ele>
        <time>2017-09-06T16:28:49+02:00</time>
      </trkpt>
      <trkpt lat="46.85564" lon="-1.09395">
        <ele>91</ele>
        <time>2017-09-06T16:29:05+02:00</time>
      </trkpt>
      <trkpt lat="46.85541" lon="-1.09405">
        <ele>91</ele>
        <time>2017-09-06T16:29:20+02:00</time>
      </trkpt>
      <trkpt lat="46.8552" lon="-1.09414">
        <ele>92</ele>
        <time>2017-09-06T16:29:41+02:00</time>
      </trkpt>
      <trkpt lat="46.85499" lon="-1.094">
        <ele>93</ele>
        <time>2017-09-06T16:29:58+02:00</time>
      </trkpt>
      <trkpt lat="46.85477" lon="-1.09393">
        <ele>93</ele>
        <time>2017-09-06T16:30:12+02:00</time>
      </trkpt>
      <trkpt lat="46.85454" lon="-1.09385">
        <ele>93</ele>
        <time>2017-09-06T16:30:27+02:00</time>
      </trkpt>
      <trkpt lat="46.85431" lon="-1.09379">
        <ele>93</ele>
        <time>2017-09-06T16:30:43+02:00</time>
      </trkpt>
      <trkpt lat="46.85408" lon="-1.0937">
        <ele>94</ele>
        <time>2017-09-06T16:30:58+02:00</time>
      </trkpt>
      <trkpt lat="46.85385" lon="-1.09367">
        <ele>95</ele>
        <time>2017-09-06T16:31:12+02:00</time>
      </trkpt>
      <trkpt lat="46.85363" lon="-1.09361">
        <ele>96</ele>
        <time>2017-09-06T16:31:28+02:00</time>
      </trkpt>
      <trkpt lat="46.8534" lon="-1.09357">
        <ele>97</ele>
        <time>2017-09-06T16:31:44+02:00</time>
      </trkpt>
      <trkpt lat="46.85318" lon="-1.0935">
        <ele>97</ele>
        <time>2017-09-06T16:31:56+02:00</time>
      </trkpt>
      <trkpt lat="46.853" lon="-1.0935">
        <ele>98</ele>
        <time>2017-09-06T16:32:14+02:00</time>
      </trkpt>
      <trkpt lat="46.85286" lon="-1.09386">
        <ele>98</ele>
        <time>2017-09-06T16:32:30+02:00</time>
      </trkpt>
      <trkpt lat="46.85268" lon="-1.09419">
        <ele>99</ele>
        <time>2017-09-06T16:32:45+02:00</time>
      </trkpt>
      <trkpt lat="46.85274" lon="-1.09434">
        <ele>100</ele>
        <time>2017-09-06T16:33:52+02:00</time>
      </trkpt>
      <trkpt lat="46.85284" lon="-1.09463">
        <ele>100</ele>
        <time>2017-09-06T16:34:09+02:00</time>
      </trkpt>
      <trkpt lat="46.85284" lon="-1.09497">
        <ele>100</ele>
        <time>2017-09-06T16:34:26+02:00</time>
      </trkpt>
      <trkpt lat="46.85273" lon="-1.09526">
        <ele>101</ele>
        <time>2017-09-06T16:34:43+02:00</time>
      </trkpt>
      <trkpt lat="46.85263" lon="-1.09556">
        <ele>102</ele>
        <time>2017-09-06T16:34:59+02:00</time>
      </trkpt>
      <trkpt lat="46.85255" lon="-1.09587">
        <ele>103</ele>
        <time>2017-09-06T16:35:17+02:00</time>
      </trkpt>
      <trkpt lat="46.85252" lon="-1.09622">
        <ele>105</ele>
        <time>2017-09-06T16:35:35+02:00</time>
      </trkpt>
      <trkpt lat="46.85243" lon="-1.09646">
        <ele>106</ele>
        <time>2017-09-06T16:35:51+02:00</time>
      </trkpt>
      <trkpt lat="46.85237" lon="-1.09687">
        <ele>107</ele>
        <time>2017-09-06T16:36:06+02:00</time>
      </trkpt>
      <trkpt lat="46.85235" lon="-1.09717">
        <ele>107</ele>
        <time>2017-09-06T16:36:20+02:00</time>
      </trkpt>
      <trkpt lat="46.85216" lon="-1.09777">
        <ele>107</ele>
        <time>2017-09-06T16:38:26+02:00</time>
      </trkpt>
      <trkpt lat="46.85206" lon="-1.09807">
        <ele>106</ele>
        <time>2017-09-06T16:38:41+02:00</time>
      </trkpt>
      <trkpt lat="46.85195" lon="-1.09836">
        <ele>106</ele>
        <time>2017-09-06T16:38:59+02:00</time>
      </trkpt>
      <trkpt lat="46.85185" lon="-1.09868">
        <ele>107</ele>
        <time>2017-09-06T16:39:14+02:00</time>
      </trkpt>
      <trkpt lat="46.85176" lon="-1.09901">
        <ele>107</ele>
        <time>2017-09-06T16:39:33+02:00</time>
      </trkpt>
      <trkpt lat="46.85166" lon="-1.09934">
        <ele>107</ele>
        <time>2017-09-06T16:39:52+02:00</time>
      </trkpt>
      <trkpt lat="46.85153" lon="-1.09952">
        <ele>107</ele>
        <time>2017-09-06T16:40:04+02:00</time>
      </trkpt>
      <trkpt lat="46.85135" lon="-1.09976">
        <ele>107</ele>
        <time>2017-09-06T16:40:21+02:00</time>
      </trkpt>
      <trkpt lat="46.8513" lon="-1.10009">
        <ele>107</ele>
        <time>2017-09-06T16:40:42+02:00</time>
      </trkpt>
      <trkpt lat="46.85119" lon="-1.10038">
        <ele>107</ele>
        <time>2017-09-06T16:40:57+02:00</time>
      </trkpt>
      <trkpt lat="46.85105" lon="-1.10066">
        <ele>106</ele>
        <time>2017-09-06T16:41:16+02:00</time>
      </trkpt>
      <trkpt lat="46.85099" lon="-1.10098">
        <ele>106</ele>
        <time>2017-09-06T16:41:29+02:00</time>
      </trkpt>
      <trkpt lat="46.85095" lon="-1.10131">
        <ele>106</ele>
        <time>2017-09-06T16:41:44+02:00</time>
      </trkpt>
      <trkpt lat="46.851" lon="-1.10164">
        <ele>105</ele>
        <time>2017-09-06T16:41:59+02:00</time>
      </trkpt>
      <trkpt lat="46.85101" lon="-1.10198">
        <ele>105</ele>
        <time>2017-09-06T16:42:14+02:00</time>
      </trkpt>
      <trkpt lat="46.85102" lon="-1.10229">
        <ele>105</ele>
        <time>2017-09-06T16:42:29+02:00</time>
      </trkpt>
      <trkpt lat="46.85108" lon="-1.10271">
        <ele>104</ele>
        <time>2017-09-06T16:42:46+02:00</time>
      </trkpt>
      <trkpt lat="46.85113" lon="-1.10303">
        <ele>103</ele>
        <time>2017-09-06T16:43:00+02:00</time>
      </trkpt>
      <trkpt lat="46.85118" lon="-1.10334">
        <ele>103</ele>
        <time>2017-09-06T16:43:13+02:00</time>
      </trkpt>
      <trkpt lat="46.85126" lon="-1.10365">
        <ele>103</ele>
        <time>2017-09-06T16:43:28+02:00</time>
      </trkpt>
      <trkpt lat="46.85132" lon="-1.10396">
        <ele>102</ele>
        <time>2017-09-06T16:43:43+02:00</time>
      </trkpt>
      <trkpt lat="46.85141" lon="-1.10428">
        <ele>102</ele>
        <time>2017-09-06T16:43:59+02:00</time>
      </trkpt>
      <trkpt lat="46.8515" lon="-1.10458">
        <ele>103</ele>
        <time>2017-09-06T16:44:13+02:00</time>
      </trkpt>
      <trkpt lat="46.85163" lon="-1.10487">
        <ele>103</ele>
        <time>2017-09-06T16:44:27+02:00</time>
      </trkpt>
      <trkpt lat="46.85161" lon="-1.1052">
        <ele>103</ele>
        <time>2017-09-06T16:44:45+02:00</time>
      </trkpt>
      <trkpt lat="46.85143" lon="-1.10542">
        <ele>102</ele>
        <time>2017-09-06T16:45:00+02:00</time>
      </trkpt>
      <trkpt lat="46.85128" lon="-1.10569">
        <ele>102</ele>
        <time>2017-09-06T16:45:16+02:00</time>
      </trkpt>
      <trkpt lat="46.85118" lon="-1.106">
        <ele>101</ele>
        <time>2017-09-06T16:45:29+02:00</time>
      </trkpt>
      <trkpt lat="46.85112" lon="-1.10634">
        <ele>101</ele>
        <time>2017-09-06T16:45:44+02:00</time>
      </trkpt>
      <trkpt lat="46.85111" lon="-1.10667">
        <ele>101</ele>
        <time>2017-09-06T16:45:58+02:00</time>
      </trkpt>
      <trkpt lat="46.85096" lon="-1.10693">
        <ele>100</ele>
        <time>2017-09-06T16:46:12+02:00</time>
      </trkpt>
      <trkpt lat="46.85085" lon="-1.10723">
        <ele>99</ele>
        <time>2017-09-06T16:46:28+02:00</time>
      </trkpt>
      <trkpt lat="46.85077" lon="-1.10754">
        <ele>98</ele>
        <time>2017-09-06T16:46:47+02:00</time>
      </trkpt>
      <trkpt lat="46.85064" lon="-1.10782">
        <ele>97</ele>
        <time>2017-09-06T16:47:03+02:00</time>
      </trkpt>
      <trkpt lat="46.85057" lon="-1.10814">
        <ele>97</ele>
        <time>2017-09-06T16:47:21+02:00</time>
      </trkpt>
      <trkpt lat="46.85044" lon="-1.10842">
        <ele>97</ele>
        <time>2017-09-06T16:47:37+02:00</time>
      </trkpt>
      <trkpt lat="46.85028" lon="-1.10866">
        <ele>97</ele>
        <time>2017-09-06T16:47:47+02:00</time>
      </trkpt>
      <trkpt lat="46.85016" lon="-1.10896">
        <ele>97</ele>
        <time>2017-09-06T16:48:03+02:00</time>
      </trkpt>
      <trkpt lat="46.85004" lon="-1.10924">
        <ele>97</ele>
        <time>2017-09-06T16:48:18+02:00</time>
      </trkpt>
      <trkpt lat="46.84981" lon="-1.10976">
        <ele>96</ele>
        <time>2017-09-06T16:48:56+02:00</time>
      </trkpt>
      <trkpt lat="46.84963" lon="-1.10956">
        <ele>96</ele>
        <time>2017-09-06T16:49:09+02:00</time>
      </trkpt>
      <trkpt lat="46.84941" lon="-1.10946">
        <ele>97</ele>
        <time>2017-09-06T16:49:24+02:00</time>
      </trkpt>
      <trkpt lat="46.84917" lon="-1.10946">
        <ele>97</ele>
        <time>2017-09-06T16:49:40+02:00</time>
      </trkpt>
      <trkpt lat="46.84895" lon="-1.10939">
        <ele>97</ele>
        <time>2017-09-06T16:49:54+02:00</time>
      </trkpt>
      <trkpt lat="46.84873" lon="-1.1093">
        <ele>96</ele>
        <time>2017-09-06T16:50:11+02:00</time>
      </trkpt>
      <trkpt lat="46.84851" lon="-1.10941">
        <ele>96</ele>
        <time>2017-09-06T16:50:34+02:00</time>
      </trkpt>
      <trkpt lat="46.84834" lon="-1.10963">
        <ele>95</ele>
        <time>2017-09-06T16:50:59+02:00</time>
      </trkpt>
      <trkpt lat="46.84826" lon="-1.10994">
        <ele>94</ele>
        <time>2017-09-06T16:51:14+02:00</time>
      </trkpt>
      <trkpt lat="46.8482" lon="-1.11025">
        <ele>95</ele>
        <time>2017-09-06T16:51:29+02:00</time>
      </trkpt>
      <trkpt lat="46.84819" lon="-1.1106">
        <ele>96</ele>
        <time>2017-09-06T16:51:45+02:00</time>
      </trkpt>
      <trkpt lat="46.84836" lon="-1.11084">
        <ele>96</ele>
        <time>2017-09-06T16:52:05+02:00</time>
      </trkpt>
      <trkpt lat="46.84856" lon="-1.11103">
        <ele>95</ele>
        <time>2017-09-06T16:52:22+02:00</time>
      </trkpt>
      <trkpt lat="46.84875" lon="-1.11123">
        <ele>95</ele>
        <time>2017-09-06T16:52:37+02:00</time>
      </trkpt>
      <trkpt lat="46.84891" lon="-1.11146">
        <ele>95</ele>
        <time>2017-09-06T16:52:52+02:00</time>
      </trkpt>
      <trkpt lat="46.84905" lon="-1.11173">
        <ele>94</ele>
        <time>2017-09-06T16:53:09+02:00</time>
      </trkpt>
      <trkpt lat="46.8492" lon="-1.112">
        <ele>94</ele>
        <time>2017-09-06T16:53:26+02:00</time>
      </trkpt>
      <trkpt lat="46.84932" lon="-1.11231">
        <ele>95</ele>
        <time>2017-09-06T16:53:39+02:00</time>
      </trkpt>
      <trkpt lat="46.84941" lon="-1.11261">
        <ele>95</ele>
        <time>2017-09-06T16:53:56+02:00</time>
      </trkpt>
      <trkpt lat="46.84952" lon="-1.11293">
        <ele>95</ele>
        <time>2017-09-06T16:54:11+02:00</time>
      </trkpt>
      <trkpt lat="46.8496" lon="-1.11324">
        <ele>95</ele>
        <time>2017-09-06T16:54:26+02:00</time>
      </trkpt>
      <trkpt lat="46.84969" lon="-1.11355">
        <ele>95</ele>
        <time>2017-09-06T16:54:40+02:00</time>
      </trkpt>
      <trkpt lat="46.84981" lon="-1.11385">
        <ele>95</ele>
        <time>2017-09-06T16:54:55+02:00</time>
      </trkpt>
      <trkpt lat="46.84993" lon="-1.11413">
        <ele>95</ele>
        <time>2017-09-06T16:55:09+02:00</time>
      </trkpt>
      <trkpt lat="46.85002" lon="-1.11443">
        <ele>95</ele>
        <time>2017-09-06T16:55:24+02:00</time>
      </trkpt>
      <trkpt lat="46.85015" lon="-1.11472">
        <ele>95</ele>
        <time>2017-09-06T16:55:39+02:00</time>
      </trkpt>
      <trkpt lat="46.85011" lon="-1.11507">
        <ele>96</ele>
        <time>2017-09-06T16:55:57+02:00</time>
      </trkpt>
      <trkpt lat="46.85009" lon="-1.11539">
        <ele>96</ele>
        <time>2017-09-06T16:56:11+02:00</time>
      </trkpt>
      <trkpt lat="46.85016" lon="-1.11572">
        <ele>96</ele>
        <time>2017-09-06T16:56:25+02:00</time>
      </trkpt>
      <trkpt lat="46.85024" lon="-1.11605">
        <ele>96</ele>
        <time>2017-09-06T16:56:40+02:00</time>
      </trkpt>
      <trkpt lat="46.85042" lon="-1.11628">
        <ele>96</ele>
        <time>2017-09-06T16:56:56+02:00</time>
      </trkpt>
      <trkpt lat="46.85062" lon="-1.11646">
        <ele>96</ele>
        <time>2017-09-06T16:57:11+02:00</time>
      </trkpt>
      <trkpt lat="46.85084" lon="-1.11659">
        <ele>96</ele>
        <time>2017-09-06T16:57:30+02:00</time>
      </trkpt>
      <trkpt lat="46.85095" lon="-1.11689">
        <ele>96</ele>
        <time>2017-09-06T16:57:44+02:00</time>
      </trkpt>
      <trkpt lat="46.85097" lon="-1.11732">
        <ele>95</ele>
      </trkpt>
      <trkpt lat="46.85086" lon="-1.11753">
        <ele>95</ele>
        <time>2017-09-06T16:58:16+02:00</time>
      </trkpt>
      <trkpt lat="46.85075" lon="-1.11782">
        <ele>95</ele>
        <time>2017-09-06T16:58:36+02:00</time>
      </trkpt>
      <trkpt lat="46.85063" lon="-1.11812">
        <ele>95</ele>
        <time>2017-09-06T16:58:50+02:00</time>
      </trkpt>
      <trkpt lat="46.85048" lon="-1.11848">
        <ele>96</ele>
        <time>2017-09-06T16:59:03+02:00</time>
      </trkpt>
      <trkpt lat="46.85061" lon="-1.11872">
        <ele>96</ele>
        <time>2017-09-06T16:59:22+02:00</time>
      </trkpt>
      <trkpt lat="46.8508" lon="-1.11893">
        <ele>96</ele>
        <time>2017-09-06T16:59:39+02:00</time>
      </trkpt>
      <trkpt lat="46.85097" lon="-1.11918">
        <ele>97</ele>
        <time>2017-09-06T17:00:00+02:00</time>
      </trkpt>
      <trkpt lat="46.85113" lon="-1.11942">
        <ele>98</ele>
        <time>2017-09-06T17:00:15+02:00</time>
      </trkpt>
      <trkpt lat="46.85131" lon="-1.11963">
        <ele>98</ele>
        <time>2017-09-06T17:00:30+02:00</time>
      </trkpt>
      <trkpt lat="46.85147" lon="-1.11988">
        <ele>99</ele>
        <time>2017-09-06T17:00:44+02:00</time>
      </trkpt>
      <trkpt lat="46.85165" lon="-1.1201">
        <ele>100</ele>
        <time>2017-09-06T17:00:58+02:00</time>
      </trkpt>
      <trkpt lat="46.8518" lon="-1.12035">
        <ele>100</ele>
        <time>2017-09-06T17:01:14+02:00</time>
      </trkpt>
      <trkpt lat="46.85194" lon="-1.12061">
        <ele>101</ele>
        <time>2017-09-06T17:01:29+02:00</time>
      </trkpt>
      <trkpt lat="46.85205" lon="-1.12091">
        <ele>102</ele>
        <time>2017-09-06T17:01:43+02:00</time>
      </trkpt>
      <trkpt lat="46.85201" lon="-1.12124">
        <ele>102</ele>
        <time>2017-09-06T17:02:04+02:00</time>
      </trkpt>
      <trkpt lat="46.85189" lon="-1.12153">
        <ele>103</ele>
        <time>2017-09-06T17:02:19+02:00</time>
      </trkpt>
      <trkpt lat="46.85161" lon="-1.12206">
        <ele>102</ele>
        <time>2017-09-06T17:02:52+02:00</time>
      </trkpt>
      <trkpt lat="46.85147" lon="-1.12232">
        <ele>102</ele>
        <time>2017-09-06T17:03:06+02:00</time>
      </trkpt>
      <trkpt lat="46.85128" lon="-1.12254">
        <ele>102</ele>
        <time>2017-09-06T17:03:22+02:00</time>
      </trkpt>
      <trkpt lat="46.8511" lon="-1.12276">
        <ele>101</ele>
        <time>2017-09-06T17:03:39+02:00</time>
      </trkpt>
      <trkpt lat="46.85101" lon="-1.12307">
        <ele>101</ele>
        <time>2017-09-06T17:03:52+02:00</time>
      </trkpt>
      <trkpt lat="46.851" lon="-1.12341">
        <ele>101</ele>
        <time>2017-09-06T17:05:52+02:00</time>
      </trkpt>
      <trkpt lat="46.85094" lon="-1.12375">
        <ele>102</ele>
        <time>2017-09-06T17:06:11+02:00</time>
      </trkpt>
      <trkpt lat="46.85088" lon="-1.12409">
        <ele>102</ele>
        <time>2017-09-06T17:06:25+02:00</time>
      </trkpt>
      <trkpt lat="46.85089" lon="-1.12443">
        <ele>102</ele>
        <time>2017-09-06T17:06:38+02:00</time>
      </trkpt>
      <trkpt lat="46.85085" lon="-1.12476">
        <ele>101</ele>
        <time>2017-09-06T17:07:00+02:00</time>
      </trkpt>
      <trkpt lat="46.85087" lon="-1.1251">
        <ele>100</ele>
        <time>2017-09-06T17:07:19+02:00</time>
      </trkpt>
      <trkpt lat="46.85087" lon="-1.12544">
        <ele>99</ele>
        <time>2017-09-06T17:07:33+02:00</time>
      </trkpt>
      <trkpt lat="46.85095" lon="-1.12573">
        <ele>98</ele>
      </trkpt>
      <trkpt lat="46.85125" lon="-1.12616">
        <ele>97</ele>
        <time>2017-09-06T17:08:17+02:00</time>
      </trkpt>
      <trkpt lat="46.85146" lon="-1.12645">
        <ele>96</ele>
        <time>2017-09-06T17:08:33+02:00</time>
      </trkpt>
      <trkpt lat="46.85172" lon="-1.12624">
        <ele>98</ele>
        <time>2017-09-06T17:08:49+02:00</time>
      </trkpt>
      <trkpt lat="46.85194" lon="-1.1261">
        <ele>99</ele>
        <time>2017-09-06T17:09:07+02:00</time>
      </trkpt>
      <trkpt lat="46.85215" lon="-1.12597">
        <ele>99</ele>
        <time>2017-09-06T17:09:23+02:00</time>
      </trkpt>
      <trkpt lat="46.85237" lon="-1.1261">
        <ele>99</ele>
        <time>2017-09-06T17:09:38+02:00</time>
      </trkpt>
      <trkpt lat="46.85257" lon="-1.1263">
        <ele>99</ele>
        <time>2017-09-06T17:09:54+02:00</time>
      </trkpt>
      <trkpt lat="46.85275" lon="-1.12652">
        <ele>99</ele>
        <time>2017-09-06T17:10:10+02:00</time>
      </trkpt>
      <trkpt lat="46.85293" lon="-1.12674">
        <ele>99</ele>
        <time>2017-09-06T17:10:23+02:00</time>
      </trkpt>
      <trkpt lat="46.85312" lon="-1.12698">
        <ele>99</ele>
        <time>2017-09-06T17:10:38+02:00</time>
      </trkpt>
      <trkpt lat="46.85326" lon="-1.12721">
        <ele>99</ele>
        <time>2017-09-06T17:10:54+02:00</time>
      </trkpt>
      <trkpt lat="46.85345" lon="-1.1275">
        <ele>98</ele>
        <time>2017-09-06T17:11:10+02:00</time>
      </trkpt>
      <trkpt lat="46.85364" lon="-1.12806">
        <ele>99</ele>
        <time>2017-09-06T17:11:40+02:00</time>
      </trkpt>
      <trkpt lat="46.85369" lon="-1.12837">
        <ele>100</ele>
        <time>2017-09-06T17:11:54+02:00</time>
      </trkpt>
      <trkpt lat="46.85375" lon="-1.12873">
        <ele>100</ele>
        <time>2017-09-06T17:12:29+02:00</time>
      </trkpt>
      <trkpt lat="46.85372" lon="-1.12907">
        <ele>101</ele>
      </trkpt>
      <trkpt lat="46.85375" lon="-1.12942">
        <ele>102</ele>
        <time>2017-09-06T17:12:44+02:00</time>
      </trkpt>
      <trkpt lat="46.85384" lon="-1.12972">
        <ele>103</ele>
        <time>2017-09-06T17:13:00+02:00</time>
      </trkpt>
      <trkpt lat="46.85413" lon="-1.12987">
        <ele>104</ele>
      </trkpt>
      <trkpt lat="46.85451" lon="-1.13014">
        <ele>105</ele>
        <time>2017-09-06T17:14:04+02:00</time>
      </trkpt>
      <trkpt lat="46.85488" lon="-1.13043">
        <ele>105</ele>
        <time>2017-09-06T17:14:18+02:00</time>
      </trkpt>
      <trkpt lat="46.85508" lon="-1.13059">
        <ele>105</ele>
        <time>2017-09-06T17:14:34+02:00</time>
      </trkpt>
      <trkpt lat="46.85528" lon="-1.13078">
        <ele>105</ele>
        <time>2017-09-06T17:14:49+02:00</time>
      </trkpt>
      <trkpt lat="46.85548" lon="-1.13096">
        <ele>106</ele>
        <time>2017-09-06T17:15:02+02:00</time>
      </trkpt>
      <trkpt lat="46.85567" lon="-1.13115">
        <ele>106</ele>
        <time>2017-09-06T17:15:18+02:00</time>
      </trkpt>
      <trkpt lat="46.85588" lon="-1.13101">
        <ele>106</ele>
        <time>2017-09-06T17:15:45+02:00</time>
      </trkpt>
      <trkpt lat="46.85607" lon="-1.13082">
        <ele>106</ele>
        <time>2017-09-06T17:16:01+02:00</time>
      </trkpt>
      <trkpt lat="46.85627" lon="-1.13067">
        <ele>107</ele>
        <time>2017-09-06T17:16:14+02:00</time>
      </trkpt>
      <trkpt lat="46.85632" lon="-1.13035">
        <ele>107</ele>
        <time>2017-09-06T17:16:30+02:00</time>
      </trkpt>
      <trkpt lat="46.85619" lon="-1.13007">
        <ele>106</ele>
        <time>2017-09-06T17:16:46+02:00</time>
      </trkpt>
      <trkpt lat="46.85604" lon="-1.12968">
        <ele>107</ele>
        <time>2017-09-06T17:17:01+02:00</time>
      </trkpt>
      <trkpt lat="46.85594" lon="-1.12945">
        <ele>107</ele>
        <time>2017-09-06T17:17:18+02:00</time>
      </trkpt>
      <trkpt lat="46.85581" lon="-1.12919">
        <ele>108</ele>
        <time>2017-09-06T17:17:32+02:00</time>
      </trkpt>
      <trkpt lat="46.8556" lon="-1.12871">
        <ele>108</ele>
        <time>2017-09-06T17:18:02+02:00</time>
      </trkpt>
      <trkpt lat="46.85544" lon="-1.12837">
        <ele>108</ele>
        <time>2017-09-06T17:18:19+02:00</time>
      </trkpt>
      <trkpt lat="46.8553" lon="-1.12807">
        <ele>107</ele>
        <time>2017-09-06T17:18:32+02:00</time>
      </trkpt>
      <trkpt lat="46.85507" lon="-1.12753">
        <ele>105</ele>
        <time>2017-09-06T17:19:01+02:00</time>
      </trkpt>
      <trkpt lat="46.85494" lon="-1.12726">
        <ele>105</ele>
        <time>2017-09-06T17:19:16+02:00</time>
      </trkpt>
      <trkpt lat="46.85482" lon="-1.12699">
        <ele>105</ele>
        <time>2017-09-06T17:19:51+02:00</time>
      </trkpt>
      <trkpt lat="46.85472" lon="-1.12674">
        <ele>105</ele>
        <time>2017-09-06T17:20:03+02:00</time>
      </trkpt>
      <trkpt lat="46.8546" lon="-1.12644">
        <ele>105</ele>
        <time>2017-09-06T17:20:19+02:00</time>
      </trkpt>
      <trkpt lat="46.85449" lon="-1.12621">
        <ele>105</ele>
        <time>2017-09-06T17:20:34+02:00</time>
      </trkpt>
      <trkpt lat="46.85438" lon="-1.12591">
        <ele>105</ele>
        <time>2017-09-06T17:20:48+02:00</time>
      </trkpt>
      <trkpt lat="46.85424" lon="-1.12561">
        <ele>105</ele>
        <time>2017-09-06T17:21:05+02:00</time>
      </trkpt>
      <trkpt lat="46.85408" lon="-1.12535">
        <ele>104</ele>
        <time>2017-09-06T17:21:21+02:00</time>
      </trkpt>
      <trkpt lat="46.85394" lon="-1.12499">
        <ele>104</ele>
        <time>2017-09-06T17:21:33+02:00</time>
      </trkpt>
      <trkpt lat="46.85379" lon="-1.12467">
        <ele>104</ele>
        <time>2017-09-06T17:21:50+02:00</time>
      </trkpt>
      <trkpt lat="46.85372" lon="-1.12449">
        <ele>104</ele>
        <time>2017-09-06T17:22:05+02:00</time>
      </trkpt>
      <trkpt lat="46.85355" lon="-1.1242">
        <ele>105</ele>
        <time>2017-09-06T17:22:22+02:00</time>
      </trkpt>
      <trkpt lat="46.85329" lon="-1.12383">
        <ele>105</ele>
        <time>2017-09-06T17:22:53+02:00</time>
      </trkpt>
      <trkpt lat="46.85317" lon="-1.12334">
        <ele>106</ele>
        <time>2017-09-06T17:23:07+02:00</time>
      </trkpt>
      <trkpt lat="46.85306" lon="-1.12304">
        <ele>106</ele>
        <time>2017-09-06T17:23:21+02:00</time>
      </trkpt>
      <trkpt lat="46.85295" lon="-1.12277">
        <ele>107</ele>
        <time>2017-09-06T17:23:33+02:00</time>
      </trkpt>
      <trkpt lat="46.85283" lon="-1.12252">
        <ele>106</ele>
        <time>2017-09-06T17:23:49+02:00</time>
      </trkpt>
      <trkpt lat="46.85271" lon="-1.12222">
        <ele>106</ele>
        <time>2017-09-06T17:24:12+02:00</time>
      </trkpt>
      <trkpt lat="46.85277" lon="-1.12206">
        <ele>106</ele>
        <time>2017-09-06T17:24:41+02:00</time>
      </trkpt>
      <trkpt lat="46.85278" lon="-1.12169">
        <ele>107</ele>
        <time>2017-09-06T17:24:56+02:00</time>
      </trkpt>
      <trkpt lat="46.85292" lon="-1.12142">
        <ele>106</ele>
        <time>2017-09-06T17:25:12+02:00</time>
      </trkpt>
      <trkpt lat="46.85314" lon="-1.12139">
        <ele>107</ele>
        <time>2017-09-06T17:25:29+02:00</time>
      </trkpt>
      <trkpt lat="46.85338" lon="-1.12141">
        <ele>108</ele>
        <time>2017-09-06T17:25:46+02:00</time>
      </trkpt>
      <trkpt lat="46.85356" lon="-1.12115">
        <ele>107</ele>
        <time>2017-09-06T17:26:01+02:00</time>
      </trkpt>
      <trkpt lat="46.85369" lon="-1.12083">
        <ele>106</ele>
        <time>2017-09-06T17:26:18+02:00</time>
      </trkpt>
      <trkpt lat="46.85375" lon="-1.1205">
        <ele>106</ele>
        <time>2017-09-06T17:26:32+02:00</time>
      </trkpt>
      <trkpt lat="46.85389" lon="-1.12011">
        <ele>105</ele>
        <time>2017-09-06T17:26:48+02:00</time>
      </trkpt>
      <trkpt lat="46.85392" lon="-1.11947">
        <ele>105</ele>
        <time>2017-09-06T17:27:20+02:00</time>
      </trkpt>
      <trkpt lat="46.85383" lon="-1.11889">
        <ele>105</ele>
      </trkpt>
      <trkpt lat="46.85375" lon="-1.11854">
        <ele>104</ele>
        <time>2017-09-06T17:27:49+02:00</time>
      </trkpt>
      <trkpt lat="46.85349" lon="-1.11818">
        <ele>102</ele>
        <time>2017-09-06T17:28:32+02:00</time>
      </trkpt>
      <trkpt lat="46.85317" lon="-1.11777">
        <ele>99</ele>
        <time>2017-09-06T17:29:04+02:00</time>
      </trkpt>
      <trkpt lat="46.8533" lon="-1.11749">
        <ele>98</ele>
        <time>2017-09-06T17:29:19+02:00</time>
      </trkpt>
    </trkseg>
  </trk>
</gpx>